Time;durP1;ratioP1;P1;durP2;ratioP2;P2;SDS_P1;SDS_P2;PMS_P1;PMS_P2;Temp;Humidity;BMP_temperature;BMP_pressure;BME280_temperature;BME280_humidity;BME280_pressure;Samples;Min_cycle;Max_cycle;Signal;HPM_P1;HPM_P2
2022/06/23 00:01:16;;;;;;;3.90;2.55;;;;;;;;;;4942302;28;20624;-70
2022/06/23 00:03:43;;;;;;;3.28;2.60;;;;;;;;;;4941508;28;20050;-70
2022/06/23 00:06:23;;;;;;;3.63;2.40;;;;;;;;;;4948661;28;20501;-70
2022/06/23 00:08:51;;;;;;;3.75;2.80;;;;;;;;;;4943777;28;20051;-70
2022/06/23 00:11:21;;;;;;;4.53;2.40;;;;;;;;;;4941345;28;20066;-70
2022/06/23 00:13:49;;;;;;;3.50;2.50;;;;;;;;;;4942822;28;20113;-70
2022/06/23 00:16:22;;;;;;;2.97;2.45;;;;;;;;;;4945609;28;20446;-70
2022/06/23 00:18:49;;;;;;;3.17;2.20;;;;;;;;;;4940562;28;20055;-70
2022/06/23 00:21:19;;;;;;;3.10;2.28;;;;;;;;;;4943040;28;20070;-70
2022/06/23 00:23:48;;;;;;;3.25;2.40;;;;;;;;;;4944569;28;20442;-70
2022/06/23 00:26:20;;;;;;;4.05;2.50;;;;;;;;;;4937274;28;20051;-70
2022/06/23 00:28:49;;;;;;;4.72;2.90;;;;;;;;;;4943177;28;20046;-70
2022/06/23 00:31:24;;;;;;;3.67;2.63;;;;;;;;;;4942248;28;20054;-70
2022/06/23 00:33:51;;;;;;;5.38;3.00;;;;;;;;;;4947102;28;20047;-70
2022/06/23 00:36:24;;;;;;;3.35;2.70;;;;;;;;;;4944243;28;20051;-70
2022/06/23 00:38:51;;;;;;;4.38;2.95;;;;;;;;;;4944609;28;20461;-70
2022/06/23 00:41:22;;;;;;;3.60;2.67;;;;;;;;;;4943909;28;20307;-70
2022/06/23 00:43:51;;;;;;;3.97;2.70;;;;;;;;;;4939807;28;20051;-70
2022/06/23 00:46:21;;;;;;;3.63;2.88;;;;;;;;;;4948521;28;20059;-70
2022/06/23 00:48:50;;;;;;;3.08;2.65;;;;;;;;;;4965419;28;20047;-70
2022/06/23 00:51:19;;;;;;;4.55;2.92;;;;;;;;;;4943396;28;20466;-70
2022/06/23 00:53:48;;;;;;;3.13;2.83;;;;;;;;;;4944148;28;20615;-70
2022/06/23 00:56:28;;;;;;;4.65;2.90;;;;;;;;;;4938590;28;20054;-70
2022/06/23 00:58:59;;;;;;;5.10;3.03;;;;;;;;;;4942168;28;20521;-70
2022/06/23 01:01:31;;;;;;;11.63;3.33;;;;;;;;;;4943636;28;20062;-72
2022/06/23 01:04:01;;;;;;;4.35;3.28;;;;;;;;;;4939436;28;20055;-72
2022/06/23 01:06:31;;;;;;;3.85;3.10;;;;;;;;;;4947378;28;20071;-72
2022/06/23 01:09:00;;;;;;;3.67;3.03;;;;;;;;;;4944338;28;20069;-72
2022/06/23 01:11:34;;;;;;;5.00;3.30;;;;;;;;;;4960269;28;20118;-72
2022/06/23 01:14:06;;;;;;;4.90;3.42;;;;;;;;;;4944777;28;20568;-72
2022/06/23 01:16:35;;;;;;;4.32;3.40;;;;;;;;;;4947575;28;20070;-72
2022/06/23 01:19:10;;;;;;;4.88;3.47;;;;;;;;;;4945188;28;20051;-72
2022/06/23 01:21:43;;;;;;;4.18;3.78;;;;;;;;;;4958649;28;20147;-72
2022/06/23 01:24:19;;;;;;;3.88;3.47;;;;;;;;;;4947788;28;20133;-72
2022/06/23 01:27:06;;;;;;;5.07;4.22;;;;;;;;;;4943446;28;20047;-72
2022/06/23 01:29:40;;;;;;;5.05;4.32;;;;;;;;;;4944597;28;20498;-72
2022/06/23 01:32:09;;;;;;;6.93;4.30;;;;;;;;;;4945804;28;20523;-72
2022/06/23 01:34:41;;;;;;;4.40;4.00;;;;;;;;;;4943522;28;20067;-72
2022/06/23 01:37:12;;;;;;;6.53;4.70;;;;;;;;;;4948221;28;20069;-72
2022/06/23 01:39:43;;;;;;;4.90;4.38;;;;;;;;;;4941651;28;20059;-72
2022/06/23 01:42:17;;;;;;;5.63;4.55;;;;;;;;;;4943840;28;20063;-72
2022/06/23 01:44:51;;;;;;;7.68;4.90;;;;;;;;;;4945477;28;20433;-72
2022/06/23 01:47:21;;;;;;;6.57;5.00;;;;;;;;;;4948867;28;20059;-72
2022/06/23 01:49:50;;;;;;;5.53;4.72;;;;;;;;;;4950767;28;20058;-72
2022/06/23 01:52:19;;;;;;;5.32;4.60;;;;;;;;;;4944727;28;20059;-72
2022/06/23 01:54:48;;;;;;;5.38;4.85;;;;;;;;;;4948096;28;20062;-72
2022/06/23 01:57:23;;;;;;;5.60;4.50;;;;;;;;;;4941559;28;20514;-72
2022/06/23 01:59:56;;;;;;;7.55;5.30;;;;;;;;;;4948385;28;20410;-72
2022/06/23 02:02:31;;;;;;;5.97;4.93;;;;;;;;;;4943388;28;20165;-72
2022/06/23 02:05:00;;;;;;;6.70;5.68;;;;;;;;;;4941785;28;20066;-72
2022/06/23 02:07:32;;;;;;;6.97;5.28;;;;;;;;;;4948192;28;20074;-72
2022/06/23 02:10:03;;;;;;;6.38;5.63;;;;;;;;;;4945844;28;20057;-72
2022/06/23 02:12:32;;;;;;;6.15;5.10;;;;;;;;;;4962350;28;20142;-72
2022/06/23 02:15:07;;;;;;;7.13;5.20;;;;;;;;;;4949481;28;20062;-72
2022/06/23 02:17:39;;;;;;;6.35;5.63;;;;;;;;;;4945739;28;20141;-72
2022/06/23 02:20:17;;;;;;;6.05;5.00;;;;;;;;;;4939709;28;20375;-72
2022/06/23 02:22:47;;;;;;;5.72;5.20;;;;;;;;;;4940189;28;20055;-72
2022/06/23 02:25:17;;;;;;;8.35;5.70;;;;;;;;;;4945617;28;20074;-72
2022/06/23 02:27:47;;;;;;;8.93;6.22;;;;;;;;;;4946850;28;20058;-72
2022/06/23 02:30:19;;;;;;;6.03;5.32;;;;;;;;;;4948459;28;20129;-72
2022/06/23 02:32:51;;;;;;;6.60;5.85;;;;;;;;;;4942791;28;20093;-72
2022/06/23 02:35:22;;;;;;;8.25;5.15;;;;;;;;;;4943993;28;20047;-72
2022/06/23 02:37:56;;;;;;;7.38;5.30;;;;;;;;;;4948941;28;20122;-72
2022/06/23 02:40:27;;;;;;;12.20;5.30;;;;;;;;;;4942388;28;20659;-72
2022/06/23 02:42:55;;;;;;;6.72;5.85;;;;;;;;;;4948898;28;20105;-72
2022/06/23 02:45:44;;;;;;;9.55;5.97;;;;;;;;;;4947514;28;20054;-72
2022/06/23 02:48:22;;;;;;;9.82;6.97;;;;;;;;;;4945361;28;20054;-71
2022/06/23 02:50:56;;;;;;;9.45;6.40;;;;;;;;;;4945306;28;20066;-72
2022/06/23 02:53:32;;;;;;;8.70;6.82;;;;;;;;;;4945709;28;20054;-72
2022/06/23 02:56:04;;;;;;;8.13;7.10;;;;;;;;;;4950419;28;20066;-72
2022/06/23 02:58:33;;;;;;;8.18;7.07;;;;;;;;;;4946563;28;20139;-72
2022/06/23 03:01:03;;;;;;;9.88;6.95;;;;;;;;;;4943297;28;20051;-72
2022/06/23 03:03:37;;;;;;;8.60;7.07;;;;;;;;;;4939385;28;20106;-72
2022/06/23 03:06:06;;;;;;;7.60;6.53;;;;;;;;;;4949564;28;20061;-72
2022/06/23 03:08:38;;;;;;;8.10;6.53;;;;;;;;;;4943275;28;20059;-72
2022/06/23 03:11:08;;;;;;;9.63;6.65;;;;;;;;;;4944244;28;20069;-72
2022/06/23 03:13:41;;;;;;;7.63;6.78;;;;;;;;;;4965450;28;20051;-72
2022/06/23 03:16:13;;;;;;;10.02;7.15;;;;;;;;;;4942819;28;20050;-72
2022/06/23 03:18:48;;;;;;;8.13;7.13;;;;;;;;;;4947091;28;20414;-72
2022/06/23 03:21:19;;;;;;;8.50;7.25;;;;;;;;;;4946765;28;20145;-72
2022/06/23 03:23:49;;;;;;;9.70;7.15;;;;;;;;;;4944454;28;20059;-72
2022/06/23 03:26:19;;;;;;;8.52;7.07;;;;;;;;;;4947477;28;20509;-72
2022/06/23 03:28:50;;;;;;;9.15;6.55;;;;;;;;;;4942887;28;20051;-72
2022/06/23 03:31:22;;;;;;;9.60;6.70;;;;;;;;;;4945210;28;20047;-72
2022/06/23 03:33:52;;;;;;;9.25;7.07;;;;;;;;;;4941199;28;20114;-72
2022/06/23 03:36:24;;;;;;;7.75;6.45;;;;;;;;;;4941866;28;20118;-72
2022/06/23 03:41:51;;;;;;;10.48;7.07;;;;;;;;;;4910147;28;20059;-72
2022/06/23 03:44:22;;;;;;;8.25;7.10;;;;;;;;;;4947621;28;20208;-72
2022/06/23 03:46:53;;;;;;;8.68;7.68;;;;;;;;;;4946101;28;20402;-72
2022/06/23 03:49:24;;;;;;;7.93;7.10;;;;;;;;;;4945469;28;20063;-72
2022/06/23 03:51:54;;;;;;;8.02;7.00;;;;;;;;;;4948121;28;20068;-72
2022/06/23 03:54:23;;;;;;;8.82;7.00;;;;;;;;;;4947886;28;20053;-72
2022/06/23 03:56:52;;;;;;;11.13;7.30;;;;;;;;;;4944813;28;20050;-72
2022/06/23 03:59:22;;;;;;;8.05;7.07;;;;;;;;;;4941456;28;20062;-72
2022/06/23 04:01:52;;;;;;;8.50;7.60;;;;;;;;;;4942252;28;20054;-72
2022/06/23 04:04:22;;;;;;;9.18;7.60;;;;;;;;;;4947127;28;20494;-72
2022/06/23 04:06:50;;;;;;;9.10;7.57;;;;;;;;;;4949409;28;20426;-72
2022/06/23 04:09:19;;;;;;;8.63;7.53;;;;;;;;;;4940381;28;21906;-72
2022/06/23 04:11:48;;;;;;;9.38;7.97;;;;;;;;;;4939299;28;20160;-72
2022/06/23 04:14:18;;;;;;;12.07;8.63;;;;;;;;;;4945440;28;20563;-72
2022/06/23 04:16:46;;;;;;;10.82;9.18;;;;;;;;;;4946118;28;20129;-72
2022/06/23 04:19:17;;;;;;;9.73;8.70;;;;;;;;;;4942898;28;20043;-72
2022/06/23 04:21:47;;;;;;;11.00;8.70;;;;;;;;;;4946083;28;20071;-72
2022/06/23 04:24:17;;;;;;;11.85;8.73;;;;;;;;;;4942588;28;20050;-72
2022/06/23 04:26:45;;;;;;;10.10;9.10;;;;;;;;;;4946195;28;20054;-72
2022/06/23 04:29:16;;;;;;;9.55;8.20;;;;;;;;;;4940002;28;20407;-72
2022/06/23 04:31:50;;;;;;;13.00;9.55;;;;;;;;;;4946989;28;20059;-72
2022/06/23 04:34:20;;;;;;;11.00;9.23;;;;;;;;;;4944417;28;20109;-73
2022/06/23 04:36:49;;;;;;;12.45;9.05;;;;;;;;;;4937156;28;20442;-73
2022/06/23 04:39:22;;;;;;;13.82;8.73;;;;;;;;;;4943743;28;20045;-73
2022/06/23 04:41:52;;;;;;;12.07;9.07;;;;;;;;;;4944057;28;20055;-72
2022/06/23 04:44:22;;;;;;;12.02;9.77;;;;;;;;;;4945657;28;20654;-73
2022/06/23 04:46:51;;;;;;;12.95;9.43;;;;;;;;;;4945407;28;20051;-72
2022/06/23 04:49:20;;;;;;;11.05;9.40;;;;;;;;;;4943599;28;20117;-73
2022/06/23 04:51:51;;;;;;;12.75;9.35;;;;;;;;;;4942472;28;20117;-71
2022/06/23 04:54:21;;;;;;;11.82;10.10;;;;;;;;;;4958697;28;20047;-72
2022/06/23 04:56:50;;;;;;;11.75;10.38;;;;;;;;;;4941027;28;20059;-73
2022/06/23 04:59:29;;;;;;;12.02;9.25;;;;;;;;;;4961774;28;20059;-72
2022/06/23 05:01:58;;;;;;;13.98;9.93;;;;;;;;;;4940878;28;20518;-72
2022/06/23 05:04:29;;;;;;;10.65;9.32;;;;;;;;;;4956129;28;20047;-72
2022/06/23 05:06:59;;;;;;;14.30;9.90;;;;;;;;;;4940844;28;20514;-72
2022/06/23 05:09:29;;;;;;;13.35;9.20;;;;;;;;;;4942439;28;20051;-72
2022/06/23 05:11:58;;;;;;;12.82;9.23;;;;;;;;;;4943883;28;20065;-73
2022/06/23 05:14:29;;;;;;;13.13;9.60;;;;;;;;;;4944907;28;20063;-74
2022/06/23 05:17:02;;;;;;;12.07;9.52;;;;;;;;;;4962710;28;20051;-74
2022/06/23 05:19:31;;;;;;;11.82;9.95;;;;;;;;;;4943497;28;20043;-73
2022/06/23 05:22:02;;;;;;;15.00;10.18;;;;;;;;;;4945771;28;20102;-75
2022/06/23 05:24:30;;;;;;;12.02;9.50;;;;;;;;;;4943616;28;20054;-71
2022/06/23 05:26:59;;;;;;;13.90;10.27;;;;;;;;;;4941855;28;20070;-71
2022/06/23 05:29:29;;;;;;;13.95;10.10;;;;;;;;;;4948089;28;20062;-71
2022/06/23 05:31:58;;;;;;;12.80;10.10;;;;;;;;;;4947401;28;20051;-71
2022/06/23 05:34:27;;;;;;;12.00;9.75;;;;;;;;;;4948929;28;20450;-71
2022/06/23 05:36:57;;;;;;;14.05;9.43;;;;;;;;;;4948688;28;20058;-72
2022/06/23 05:39:30;;;;;;;10.85;9.25;;;;;;;;;;4947131;28;20643;-72
2022/06/23 05:41:59;;;;;;;16.87;8.03;;;;;;;;;;4948584;28;20051;-72
2022/06/23 05:44:30;;;;;;;10.32;8.15;;;;;;;;;;4947586;28;20127;-72
2022/06/23 05:47:00;;;;;;;13.38;8.23;;;;;;;;;;4944873;28;20062;-72
2022/06/23 05:49:31;;;;;;;10.75;7.75;;;;;;;;;;4945183;28;20071;-72
2022/06/23 05:52:01;;;;;;;13.98;7.97;;;;;;;;;;4947055;28;20046;-72
2022/06/23 05:54:31;;;;;;;8.85;7.15;;;;;;;;;;4948703;28;20141;-71
2022/06/23 05:57:03;;;;;;;12.13;7.78;;;;;;;;;;4950075;28;20046;-71
2022/06/23 05:59:31;;;;;;;15.65;7.35;;;;;;;;;;4947938;28;20062;-71
2022/06/23 06:02:02;;;;;;;9.45;7.57;;;;;;;;;;4946538;28;20054;-71
2022/06/23 06:04:32;;;;;;;9.65;6.43;;;;;;;;;;4947945;28;20057;-71
2022/06/23 06:07:00;;;;;;;10.65;7.50;;;;;;;;;;4944761;28;20674;-72
2022/06/23 06:12:18;;;;;;;10.63;7.00;;;;;;;;;;4950509;28;20401;-72
2022/06/23 06:14:48;;;;;;;10.13;6.70;;;;;;;;;;4948942;28;20209;-72
2022/06/23 06:17:18;;;;;;;10.80;7.10;;;;;;;;;;4947955;28;20055;-72
2022/06/23 06:19:45;;;;;;;9.68;6.85;;;;;;;;;;4948450;28;20059;-71
2022/06/23 06:22:19;;;;;;;11.60;7.78;;;;;;;;;;4951141;28;20105;-72
2022/06/23 06:24:50;;;;;;;9.20;7.05;;;;;;;;;;4952221;28;20047;-72
2022/06/23 06:27:18;;;;;;;10.93;6.75;;;;;;;;;;4948216;28;20545;-72
2022/06/23 06:29:46;;;;;;;10.57;7.72;;;;;;;;;;4946710;28;20113;-72
2022/06/23 06:32:19;;;;;;;9.48;7.28;;;;;;;;;;4949881;28;20497;-72
2022/06/23 06:34:46;;;;;;;;;;;;;;;;;;4963755;28;20109;-72
2022/06/23 06:37:15;;;;;;;8.70;6.88;;;;;;;;;;4968909;28;19954;-71
2022/06/23 06:39:44;;;;;;;12.50;7.55;;;;;;;;;;4966038;28;20109;-71
2022/06/23 06:42:13;;;;;;;13.27;7.00;;;;;;;;;;4967767;28;20054;-72
2022/06/23 06:44:43;;;;;;;10.93;7.03;;;;;;;;;;4951357;28;20442;-72
2022/06/23 06:47:17;;;;;;;9.90;7.00;;;;;;;;;;4947321;28;20050;-72
2022/06/23 06:49:45;;;;;;;11.63;7.22;;;;;;;;;;4949524;28;20177;-72
2022/06/23 06:52:12;;;;;;;10.30;7.18;;;;;;;;;;4948086;28;20401;-72
2022/06/23 06:54:43;;;;;;;9.45;7.03;;;;;;;;;;4950531;28;20145;-72
2022/06/23 06:57:13;;;;;;;11.95;7.10;;;;;;;;;;4948145;28;20405;-72
2022/06/23 06:59:46;;;;;;;11.25;6.93;;;;;;;;;;4949401;28;20058;-71
2022/06/23 07:02:15;;;;;;;9.60;7.05;;;;;;;;;;4950423;28;20565;-72
2022/06/23 07:04:45;;;;;;;8.05;7.00;;;;;;;;;;4951092;28;20114;-72
2022/06/23 07:07:14;;;;;;;11.65;6.38;;;;;;;;;;4947374;28;20059;-72
2022/06/23 07:09:44;;;;;;;10.02;7.25;;;;;;;;;;4950272;28;20059;-72
2022/06/23 07:12:14;;;;;;;9.63;7.05;;;;;;;;;;4945198;28;20055;-72
2022/06/23 07:14:47;;;;;;;11.43;7.68;;;;;;;;;;4944021;28;20059;-72
2022/06/23 07:17:18;;;;;;;12.77;6.87;;;;;;;;;;4943440;28;20043;-72
2022/06/23 07:19:48;;;;;;;9.65;7.22;;;;;;;;;;4960459;28;20330;-71
2022/06/23 07:22:17;;;;;;;12.55;7.18;;;;;;;;;;4943954;28;20059;-71
2022/06/23 07:24:48;;;;;;;10.13;7.47;;;;;;;;;;4947473;28;20190;-72
2022/06/23 07:27:18;;;;;;;11.55;6.88;;;;;;;;;;4957011;28;20112;-72
2022/06/23 07:29:52;;;;;;;11.75;6.85;;;;;;;;;;4944104;28;20058;-72
2022/06/23 07:32:22;;;;;;;9.88;7.07;;;;;;;;;;4943189;28;20141;-71
2022/06/23 07:34:52;;;;;;;13.63;7.22;;;;;;;;;;4943812;28;20122;-72
2022/06/23 07:37:22;;;;;;;9.90;6.40;;;;;;;;;;4942701;28;20054;-72
2022/06/23 07:39:51;;;;;;;16.35;6.85;;;;;;;;;;4960065;28;20059;-71
2022/06/23 07:42:21;;;;;;;9.55;7.00;;;;;;;;;;4941782;28;20043;-71
2022/06/23 07:44:52;;;;;;;8.90;6.60;;;;;;;;;;4943595;28;20058;-71
2022/06/23 07:47:19;;;;;;;11.70;6.63;;;;;;;;;;4944375;28;20054;-72
2022/06/23 07:49:46;;;;;;;9.20;7.05;;;;;;;;;;4945231;28;20069;-72
2022/06/23 07:52:15;;;;;;;11.20;7.30;;;;;;;;;;4942296;28;20533;-72
2022/06/23 07:54:43;;;;;;;8.88;7.68;;;;;;;;;;4943270;28;20056;-72
2022/06/23 07:57:10;;;;;;;9.23;6.82;;;;;;;;;;4944429;28;20110;-72
2022/06/23 07:59:40;;;;;;;15.55;7.03;;;;;;;;;;4945347;28;20144;-72
2022/06/23 08:02:11;;;;;;;12.05;7.70;;;;;;;;;;4944657;28;20058;-72
2022/06/23 08:04:40;;;;;;;9.38;7.10;;;;;;;;;;4937171;28;20062;-72
2022/06/23 08:07:09;;;;;;;32.72;8.07;;;;;;;;;;4944002;28;21263;-72
2022/06/23 08:09:38;;;;;;;10.15;6.55;;;;;;;;;;4944454;28;20660;-72
2022/06/23 08:16:49;;;;;;;10.13;5.82;;;;;;;;;;4929781;28;20059;-72
2022/06/23 08:17:42;;;;;;;12.82;7.18;;;;;;;;;;4959985;28;20058;-72
2022/06/23 08:20:10;;;;;;;21.83;6.75;;;;;;;;;;4942618;28;20105;-72
2022/06/23 08:22:39;;;;;;;16.80;7.22;;;;;;;;;;4947234;28;20058;-72
2022/06/23 08:25:08;;;;;;;8.60;6.75;;;;;;;;;;4959637;28;20051;-72
2022/06/23 08:27:35;;;;;;;12.75;5.93;;;;;;;;;;4944022;28;20095;-72
2022/06/23 08:30:06;;;;;;;7.22;5.95;;;;;;;;;;4941431;28;20070;-72
2022/06/23 08:32:34;;;;;;;30.98;7.57;;;;;;;;;;4946426;28;20466;-72
2022/06/23 08:35:04;;;;;;;42.65;8.63;;;;;;;;;;4945740;28;20149;-72
2022/06/23 08:37:35;;;;;;;15.75;6.43;;;;;;;;;;4943431;28;20087;-72
2022/06/23 08:40:08;;;;;;;7.50;6.03;;;;;;;;;;4961897;28;20051;-72
2022/06/23 08:42:40;;;;;;;9.23;6.20;;;;;;;;;;4941661;28;20055;-69
2022/06/23 08:45:12;;;;;;;17.05;7.05;;;;;;;;;;4960975;28;20113;-69
2022/06/23 08:47:46;;;;;;;9.02;6.20;;;;;;;;;;4938812;28;20047;-69
2022/06/23 08:50:17;;;;;;;10.25;5.80;;;;;;;;;;4944049;28;20058;-69
2022/06/23 08:52:48;;;;;;;6.75;5.22;;;;;;;;;;4942424;28;20058;-69
2022/06/23 08:55:18;;;;;;;7.85;5.82;;;;;;;;;;4945022;28;20058;-69
2022/06/23 08:57:49;;;;;;;6.57;5.35;;;;;;;;;;4947018;28;20057;-69
2022/06/23 09:00:20;;;;;;;10.02;6.43;;;;;;;;;;4948317;28;20121;-69
2022/06/23 09:02:52;;;;;;;11.65;7.18;;;;;;;;;;4942590;28;20063;-69
2022/06/23 09:05:24;;;;;;;13.70;7.13;;;;;;;;;;4946294;28;20047;-69
2022/06/23 09:07:54;;;;;;;9.60;6.43;;;;;;;;;;4942742;28;20118;-69
2022/06/23 09:10:27;;;;;;;10.93;6.88;;;;;;;;;;4940905;28;20054;-69
2022/06/23 09:12:57;;;;;;;8.68;4.82;;;;;;;;;;4943424;28;20055;-69
2022/06/23 09:15:30;;;;;;;9.60;4.93;;;;;;;;;;4946064;28;20055;-69
2022/06/23 09:18:11;;;;;;;13.05;5.35;;;;;;;;;;4955320;28;20047;-69
2022/06/23 09:20:51;;;;;;;9.77;5.53;;;;;;;;;;4944445;28;20204;-69
2022/06/23 09:23:25;;;;;;;8.75;5.40;;;;;;;;;;4945231;28;20050;-69
2022/06/23 09:25:55;;;;;;;9.10;5.25;;;;;;;;;;4948122;28;20070;-69
2022/06/23 09:28:26;;;;;;;6.95;5.57;;;;;;;;;;4947213;28;20490;-69
2022/06/23 09:30:59;;;;;;;9.55;4.85;;;;;;;;;;4941148;28;20059;-69
2022/06/23 09:33:32;;;;;;;7.93;4.32;;;;;;;;;;4945831;28;20062;-69
2022/06/23 09:36:14;;;;;;;12.10;4.10;;;;;;;;;;4940433;28;20382;-69
2022/06/23 09:38:59;;;;;;;7.75;4.72;;;;;;;;;;4945586;28;20117;-69
2022/06/23 09:41:37;;;;;;;9.55;4.63;;;;;;;;;;4938790;28;20133;-69
2022/06/23 09:44:13;;;;;;;8.63;3.35;;;;;;;;;;4949543;28;20047;-69
2022/06/23 09:46:55;;;;;;;7.88;4.70;;;;;;;;;;4943434;28;20050;-69
2022/06/23 09:49:52;;;;;;;7.40;4.35;;;;;;;;;;4928198;28;20118;-69
2022/06/23 09:52:38;;;;;;;5.78;4.30;;;;;;;;;;4849790;29;20436;-69
2022/06/23 09:55:29;;;;;;;12.52;4.53;;;;;;;;;;4938659;28;20047;-69
2022/06/23 09:58:22;;;;;;;6.40;3.08;;;;;;;;;;4929510;28;20054;-69
2022/06/23 10:00:53;;;;;;;10.97;3.70;;;;;;;;;;4949949;28;20051;-69
2022/06/23 10:03:28;;;;;;;9.25;3.30;;;;;;;;;;4944667;28;20062;-69
2022/06/23 10:06:02;;;;;;;6.93;3.75;;;;;;;;;;4946771;28;20798;-69
2022/06/23 10:08:39;;;;;;;6.20;3.50;;;;;;;;;;4948985;28;20086;-69
2022/06/23 10:11:14;;;;;;;4.88;3.20;;;;;;;;;;4950948;28;20398;-69
2022/06/23 10:13:51;;;;;;;6.53;3.20;;;;;;;;;;4942218;28;20067;-69
2022/06/23 10:16:33;;;;;;;7.63;3.08;;;;;;;;;;4948750;28;20054;-69
2022/06/23 10:19:12;;;;;;;7.07;3.30;;;;;;;;;;4950114;28;20046;-69
2022/06/23 10:21:45;;;;;;;6.32;3.55;;;;;;;;;;4944428;28;20047;-69
2022/06/23 10:24:28;;;;;;;9.00;3.25;;;;;;;;;;4944448;28;20055;-69
2022/06/23 10:27:03;;;;;;;5.20;2.25;;;;;;;;;;4963286;28;20054;-69
2022/06/23 10:29:42;;;;;;;3.97;1.92;;;;;;;;;;4945207;28;20058;-69
2022/06/23 10:32:20;;;;;;;6.82;2.67;;;;;;;;;;4946833;28;20050;-69
2022/06/23 10:34:56;;;;;;;5.28;2.72;;;;;;;;;;4948601;28;20058;-69
2022/06/23 10:37:35;;;;;;;5.30;2.30;;;;;;;;;;4947386;28;20497;-69
2022/06/23 10:40:31;;;;;;;5.30;2.40;;;;;;;;;;4967545;28;20059;-69
2022/06/23 10:43:04;;;;;;;9.45;3.60;;;;;;;;;;4944434;28;20058;-69
2022/06/23 10:45:37;;;;;;;9.30;2.33;;;;;;;;;;4949766;28;20058;-69
2022/06/23 10:48:15;;;;;;;6.95;2.67;;;;;;;;;;4947874;28;20050;-70
2022/06/23 10:50:47;;;;;;;5.90;2.47;;;;;;;;;;4957483;28;20113;-70
2022/06/23 10:53:20;;;;;;;6.90;2.27;;;;;;;;;;4946037;28;20080;-69
2022/06/23 10:55:53;;;;;;;5.85;2.75;;;;;;;;;;4963496;28;20410;-69
2022/06/23 10:58:20;;;;;;;;;;;;;;;;;;4950294;28;20058;-70
2022/06/23 11:00:53;;;;;;;5.35;2.30;;;;;;;;;;4946540;28;19941;-70
2022/06/23 11:03:20;;;;;;;;;;;;;;;;;;4949396;28;20043;-70
2022/06/23 11:06:02;;;;;;;6.50;2.50;;;;;;;;;;4948968;28;20738;-70
2022/06/23 11:08:40;;;;;;;4.78;2.58;;;;;;;;;;4950189;28;20058;-70
2022/06/23 11:11:14;;;;;;;3.97;2.05;;;;;;;;;;4946003;28;20061;-70
2022/06/23 11:13:43;;;;;;;7.22;2.17;;;;;;;;;;4951351;28;21147;-70
2022/06/23 11:16:27;;;;;;;5.47;2.25;;;;;;;;;;4951760;28;20047;-70
2022/06/23 11:19:02;;;;;;;5.18;2.00;;;;;;;;;;4951344;28;20179;-70
2022/06/23 11:21:33;;;;;;;7.35;2.00;;;;;;;;;;4946670;28;20044;-70
2022/06/23 11:24:02;;;;;;;6.70;2.13;;;;;;;;;;4947435;28;20059;-70
2022/06/23 11:26:37;;;;;;;7.53;2.20;;;;;;;;;;4950875;28;20053;-70
2022/06/23 11:29:18;;;;;;;8.07;2.28;;;;;;;;;;4946617;28;20712;-70
2022/06/23 11:31:52;;;;;;;7.13;2.47;;;;;;;;;;4946609;28;20059;-70
2022/06/23 11:34:26;;;;;;;7.25;1.95;;;;;;;;;;4945196;28;20402;-70
2022/06/23 11:36:59;;;;;;;6.13;2.30;;;;;;;;;;4943518;28;20070;-70
2022/06/23 11:39:40;;;;;;;6.22;2.30;;;;;;;;;;4963058;28;20051;-70
2022/06/23 11:42:10;;;;;;;7.85;2.80;;;;;;;;;;4943143;28;20573;-70
2022/06/23 11:44:42;;;;;;;4.60;2.15;;;;;;;;;;4946737;28;20439;-70
2022/06/23 11:47:15;;;;;;;4.05;2.45;;;;;;;;;;4943918;28;20384;-70
2022/06/23 11:49:47;;;;;;;7.75;2.45;;;;;;;;;;4949867;28;20055;-70
2022/06/23 11:52:32;;;;;;;3.17;2.15;;;;;;;;;;4944476;28;20047;-70
2022/06/23 11:55:17;;;;;;;6.55;2.10;;;;;;;;;;4935573;28;20063;-70
2022/06/23 11:57:54;;;;;;;6.45;2.40;;;;;;;;;;4930703;28;20688;-70
2022/06/23 12:00:26;;;;;;;7.53;2.58;;;;;;;;;;4946870;28;20703;-71
2022/06/23 12:02:53;;;;;;;;;;;;;;;;;;4950561;28;21624;-70
2022/06/23 12:05:28;;;;;;;4.03;2.40;;;;;;;;;;4944426;28;19926;-70
2022/06/23 12:08:08;;;;;;;5.22;2.25;;;;;;;;;;4946506;28;20063;-70
2022/06/23 12:10:36;;;;;;;6.13;2.65;;;;;;;;;;4939330;28;20059;-70
2022/06/23 12:13:05;;;;;;;5.03;2.55;;;;;;;;;;4947020;28;20050;-70
2022/06/23 12:15:33;;;;;;;7.50;2.50;;;;;;;;;;4946516;28;20067;-70
2022/06/23 12:18:05;;;;;;;8.55;2.70;;;;;;;;;;4946974;28;20066;-70
2022/06/23 12:20:36;;;;;;;4.40;2.55;;;;;;;;;;4949172;28;20069;-70
2022/06/23 12:23:06;;;;;;;7.15;2.53;;;;;;;;;;4947662;28;20133;-70
2022/06/23 12:25:37;;;;;;;8.25;2.45;;;;;;;;;;4962647;28;20622;-70
2022/06/23 12:28:10;;;;;;;6.03;2.65;;;;;;;;;;4943945;28;20166;-71
2022/06/23 12:30:42;;;;;;;5.28;2.65;;;;;;;;;;4945041;28;20062;-70
2022/06/23 12:33:13;;;;;;;8.35;2.72;;;;;;;;;;4949615;28;20047;-70
2022/06/23 12:35:45;;;;;;;7.10;2.55;;;;;;;;;;4939545;28;20059;-70
2022/06/23 12:38:15;;;;;;;7.07;2.80;;;;;;;;;;4944786;28;20059;-70
2022/06/23 12:40:45;;;;;;;9.30;2.55;;;;;;;;;;4948004;28;20057;-70
2022/06/23 12:43:16;;;;;;;5.30;2.60;;;;;;;;;;4947607;28;20047;-70
2022/06/23 12:45:53;;;;;;;5.43;2.40;;;;;;;;;;4938497;28;20059;-70
2022/06/23 12:48:40;;;;;;;4.38;2.60;;;;;;;;;;4964713;28;20074;-70
2022/06/23 12:51:14;;;;;;;5.75;2.63;;;;;;;;;;4941066;28;20058;-70
2022/06/23 12:53:54;;;;;;;10.98;2.95;;;;;;;;;;4943195;28;20115;-70
2022/06/23 12:56:36;;;;;;;6.60;2.70;;;;;;;;;;4965694;28;20054;-70
2022/06/23 12:59:06;;;;;;;7.07;2.50;;;;;;;;;;4966636;28;20085;-70
2022/06/23 13:01:37;;;;;;;5.25;2.60;;;;;;;;;;4948776;28;20067;-70
2022/06/23 13:04:06;;;;;;;4.57;2.78;;;;;;;;;;4964810;28;20552;-70
2022/06/23 13:06:38;;;;;;;3.30;2.70;;;;;;;;;;4946213;28;20588;-70
2022/06/23 13:09:05;;;;;;;;;;;;;;;;;;4947978;28;20142;-70
2022/06/23 13:11:39;;;;;;;5.30;2.83;;;;;;;;;;4963956;28;19925;-71
2022/06/23 13:14:09;;;;;;;7.55;2.97;;;;;;;;;;4948894;28;20502;-71
2022/06/23 13:16:42;;;;;;;4.97;2.85;;;;;;;;;;4934209;28;20066;-71
2022/06/23 13:19:13;;;;;;;8.88;2.88;;;;;;;;;;4955528;28;20117;-71
2022/06/23 13:21:41;;;;;;;4.97;2.67;;;;;;;;;;4944513;28;20098;-71
2022/06/23 13:24:10;;;;;;;6.97;2.90;;;;;;;;;;4951979;28;20059;-71
2022/06/23 13:26:39;;;;;;;7.57;3.20;;;;;;;;;;4944499;28;20047;-71
2022/06/23 13:29:09;;;;;;;10.38;3.50;;;;;;;;;;4949260;28;20046;-71
2022/06/23 13:31:41;;;;;;;7.68;3.10;;;;;;;;;;4939271;28;20473;-71
2022/06/23 13:34:13;;;;;;;6.30;3.35;;;;;;;;;;4945170;28;20393;-71
2022/06/23 13:36:45;;;;;;;4.30;3.00;;;;;;;;;;4943826;28;20071;-71
2022/06/23 13:39:18;;;;;;;4.15;3.17;;;;;;;;;;4944789;28;20047;-71
2022/06/23 13:41:51;;;;;;;5.32;3.20;;;;;;;;;;4940343;28;20058;-71
2022/06/23 13:44:22;;;;;;;6.00;2.90;;;;;;;;;;4940723;28;20062;-71
2022/06/23 13:46:54;;;;;;;5.25;3.22;;;;;;;;;;4958804;28;20449;-71
2022/06/23 13:49:23;;;;;;;7.47;3.00;;;;;;;;;;4943757;28;20057;-71
2022/06/23 13:51:57;;;;;;;4.30;3.53;;;;;;;;;;4946612;28;20042;-71
2022/06/23 13:54:28;;;;;;;7.47;3.22;;;;;;;;;;4962774;28;20078;-71
2022/06/23 13:56:59;;;;;;;4.30;3.05;;;;;;;;;;4944238;28;20050;-71
2022/06/23 13:59:28;;;;;;;5.35;2.88;;;;;;;;;;4942933;28;20058;-71
2022/06/23 14:01:58;;;;;;;3.85;2.90;;;;;;;;;;4938964;28;20121;-71
2022/06/23 14:04:28;;;;;;;9.23;3.13;;;;;;;;;;4948414;28;20093;-71
2022/06/23 14:07:02;;;;;;;7.37;3.13;;;;;;;;;;4946822;28;20510;-71
2022/06/23 14:09:31;;;;;;;6.57;2.92;;;;;;;;;;4947234;28;20322;-71
2022/06/23 14:12:01;;;;;;;6.75;2.80;;;;;;;;;;4947521;28;20422;-71
2022/06/23 14:14:30;;;;;;;5.93;3.17;;;;;;;;;;4941620;28;20093;-71
2022/06/23 14:17:02;;;;;;;5.63;3.25;;;;;;;;;;4945354;28;20046;-71
2022/06/23 14:19:34;;;;;;;4.75;2.97;;;;;;;;;;4963968;28;20422;-71
2022/06/23 14:22:04;;;;;;;4.80;3.20;;;;;;;;;;4945684;28;20058;-71
2022/06/23 14:24:33;;;;;;;6.43;3.57;;;;;;;;;;4944542;28;20577;-71
2022/06/23 14:27:04;;;;;;;3.47;3.03;;;;;;;;;;4945722;28;20413;-71
2022/06/23 14:29:37;;;;;;;6.72;3.22;;;;;;;;;;4941138;28;20110;-71
2022/06/23 14:32:10;;;;;;;6.28;3.30;;;;;;;;;;4942921;28;20057;-71
2022/06/23 14:34:39;;;;;;;4.90;3.10;;;;;;;;;;4946502;28;20402;-71
2022/06/23 14:37:12;;;;;;;6.53;3.20;;;;;;;;;;4939038;28;20397;-71
2022/06/23 14:39:42;;;;;;;7.20;3.70;;;;;;;;;;4943468;28;20059;-71
2022/06/23 14:42:15;;;;;;;12.13;3.40;;;;;;;;;;4942312;28;20082;-71
2022/06/23 14:44:49;;;;;;;6.78;3.40;;;;;;;;;;4962817;28;20181;-71
2022/06/23 14:47:23;;;;;;;6.57;3.50;;;;;;;;;;4946085;28;20078;-71
2022/06/23 14:49:58;;;;;;;5.57;3.40;;;;;;;;;;4948319;28;20414;-71
2022/06/23 14:52:30;;;;;;;6.80;3.20;;;;;;;;;;4947960;28;20070;-71
2022/06/23 14:55:03;;;;;;;4.97;3.72;;;;;;;;;;4947983;28;20110;-71
2022/06/23 14:57:38;;;;;;;4.70;3.30;;;;;;;;;;4945104;28;20517;-71
2022/06/23 15:00:10;;;;;;;6.55;3.35;;;;;;;;;;4945081;28;20312;-71
2022/06/23 15:02:41;;;;;;;5.47;3.40;;;;;;;;;;4941713;28;20050;-71
2022/06/23 15:05:12;;;;;;;7.30;3.50;;;;;;;;;;4944729;28;20113;-71
2022/06/23 15:07:43;;;;;;;5.25;3.60;;;;;;;;;;4950634;28;20513;-71
2022/06/23 15:10:16;;;;;;;3.25;2.92;;;;;;;;;;4948515;28;20049;-71
2022/06/23 15:12:45;;;;;;;3.80;3.40;;;;;;;;;;4950677;28;20050;-71
2022/06/23 15:15:16;;;;;;;7.13;3.65;;;;;;;;;;4946346;28;20491;-71
2022/06/23 15:17:43;;;;;;;;;;;;;;;;;;4944068;28;20054;-71